createdAt,value
2018-08-13T00:01:36.326Z,17.00
2018-08-13T00:04:04.957Z,17.00
2018-08-13T00:06:33.829Z,16.90
2018-08-13T00:09:02.694Z,16.90
2018-08-13T00:11:31.546Z,16.90
2018-08-13T00:14:00.269Z,16.90
2018-08-13T00:16:29.193Z,16.80
2018-08-13T00:18:58.090Z,16.80
2018-08-13T00:21:26.777Z,16.80
2018-08-13T00:23:55.549Z,16.80
2018-08-13T00:26:24.236Z,16.80
2018-08-13T00:28:53.005Z,16.70
2018-08-13T00:31:22.889Z,16.70
2018-08-13T00:33:52.399Z,16.70
2018-08-13T00:36:21.105Z,16.60
2018-08-13T00:38:50.005Z,16.60
2018-08-13T00:41:18.730Z,16.60
2018-08-13T00:43:47.682Z,16.50
2018-08-13T00:46:16.530Z,16.50
2018-08-13T00:48:45.892Z,16.50
2018-08-13T00:51:14.794Z,16.40
2018-08-13T00:53:43.405Z,16.40
2018-08-13T00:56:12.307Z,16.40
2018-08-13T00:58:40.946Z,16.30
2018-08-13T01:01:09.849Z,16.20
2018-08-13T01:03:38.667Z,16.10
2018-08-13T01:06:07.428Z,16.10
2018-08-13T01:08:36.283Z,16.00
2018-08-13T01:11:05.070Z,16.00
2018-08-13T01:13:33.831Z,16.00
2018-08-13T01:16:02.619Z,16.00
2018-08-13T01:18:32.023Z,16.00
2018-08-13T01:21:00.785Z,15.90
2018-08-13T01:23:29.794Z,15.90
2018-08-13T01:25:58.661Z,15.90
2018-08-13T01:28:27.490Z,15.90
2018-08-13T01:30:56.179Z,15.90
2018-08-13T01:33:24.876Z,15.90
2018-08-13T01:35:53.614Z,15.90
2018-08-13T01:38:22.352Z,15.90
2018-08-13T01:40:51.036Z,15.80
2018-08-13T01:43:19.818Z,15.70
2018-08-13T01:45:48.499Z,15.70
2018-08-13T01:48:17.190Z,15.60
2018-08-13T01:50:45.878Z,15.60
2018-08-13T01:53:14.682Z,15.60
2018-08-13T01:55:43.415Z,15.60
2018-08-13T01:58:12.194Z,15.60
2018-08-13T02:00:40.950Z,15.60
2018-08-13T02:03:09.646Z,15.60
2018-08-13T02:05:38.362Z,15.60
2018-08-13T02:08:07.314Z,15.60
2018-08-13T02:10:36.048Z,15.60
2018-08-13T02:13:04.885Z,15.60
2018-08-13T02:15:33.542Z,15.50
2018-08-13T02:18:02.584Z,15.50
2018-08-13T02:20:31.289Z,15.50
2018-08-13T02:23:00.110Z,15.50
2018-08-13T02:25:28.846Z,15.50
2018-08-13T02:27:57.605Z,15.50
2018-08-13T02:30:26.350Z,15.50
2018-08-13T02:32:55.049Z,15.50
2018-08-13T02:35:23.810Z,15.50
2018-08-13T02:37:52.555Z,15.50
2018-08-13T02:40:21.270Z,15.50
2018-08-13T02:42:50.069Z,15.50
2018-08-13T02:45:18.869Z,15.50
2018-08-13T02:47:47.657Z,15.50
2018-08-13T02:50:16.505Z,15.40
2018-08-13T02:52:45.306Z,15.30
2018-08-13T02:55:14.010Z,15.30
2018-08-13T02:57:42.937Z,15.30
2018-08-13T03:00:12.989Z,15.30
2018-08-13T03:02:41.895Z,15.20
2018-08-13T03:05:12.948Z,15.10
2018-08-13T03:07:41.765Z,15.10
2018-08-13T03:10:12.648Z,15.00
2018-08-13T03:12:41.863Z,15.00
2018-08-13T03:15:13.987Z,15.10
2018-08-13T03:17:43.149Z,15.10
2018-08-13T03:20:18.088Z,15.10
2018-08-13T03:22:47.036Z,15.10
2018-08-13T03:25:15.889Z,15.10
2018-08-13T03:27:44.610Z,15.10
2018-08-13T03:30:14.178Z,15.10
2018-08-13T03:32:42.922Z,15.10
2018-08-13T03:35:11.742Z,15.10
2018-08-13T03:37:40.728Z,15.20
2018-08-13T03:40:11.945Z,15.20
2018-08-13T03:42:41.251Z,15.10
2018-08-13T03:45:11.969Z,15.10
2018-08-13T03:47:41.336Z,15.10
2018-08-13T03:50:11.625Z,15.10
2018-08-13T03:52:40.842Z,15.10
2018-08-13T03:55:11.428Z,15.10
2018-08-13T03:57:40.785Z,15.00
2018-08-13T04:00:13.582Z,15.00
2018-08-13T04:02:42.695Z,14.90
2018-08-13T04:05:14.454Z,14.90
2018-08-13T04:07:43.451Z,15.00
2018-08-13T04:10:13.158Z,15.00
2018-08-13T04:12:43.930Z,15.00
2018-08-13T04:15:14.133Z,15.00
2018-08-13T04:17:43.542Z,15.00
2018-08-13T04:20:14.991Z,15.00
2018-08-13T04:22:44.311Z,15.10
2018-08-13T04:25:13.074Z,15.10
2018-08-13T04:27:42.411Z,15.00
2018-08-13T04:30:15.010Z,14.90
2018-08-13T04:32:45.022Z,14.80
2018-08-13T04:35:14.378Z,14.80
2018-08-13T04:37:44.256Z,14.80
2018-08-13T04:40:14.539Z,14.70
2018-08-13T04:42:44.469Z,14.70
2018-08-13T04:45:13.428Z,14.80
2018-08-13T04:47:53.801Z,14.90
2018-08-13T04:50:22.631Z,15.00
2018-08-13T04:52:52.043Z,15.10
2018-08-13T04:55:21.767Z,15.00
2018-08-13T04:57:50.474Z,15.00
2018-08-13T05:00:19.301Z,15.10
2018-08-13T05:02:47.986Z,15.10
2018-08-13T05:05:16.748Z,15.20
2018-08-13T05:07:45.565Z,15.30
2018-08-13T05:10:14.314Z,15.50
2018-08-13T05:12:43.133Z,15.80
2018-08-13T05:15:12.359Z,15.90
2018-08-13T05:17:41.170Z,16.10
2018-08-13T05:20:10.806Z,16.20
2018-08-13T05:22:39.554Z,16.30
2018-08-13T05:25:10.285Z,16.50
2018-08-13T05:27:39.326Z,16.60
2018-08-13T05:30:09.597Z,16.70
2018-08-13T05:32:56.831Z,16.80
2018-08-13T05:35:25.835Z,16.90
2018-08-13T05:37:54.589Z,16.90
2018-08-13T05:40:23.330Z,16.90
2018-08-13T05:42:52.015Z,17.00
2018-08-13T05:45:20.946Z,17.00
2018-08-13T05:47:49.664Z,17.10
2018-08-13T05:50:18.378Z,17.10
2018-08-13T05:52:47.283Z,17.20
2018-08-13T05:55:15.958Z,17.30
2018-08-13T05:57:44.703Z,17.40
2018-08-13T06:00:14.420Z,17.50
2018-08-13T06:02:43.722Z,17.60
2018-08-13T06:05:13.213Z,17.60
2018-08-13T06:07:42.655Z,17.70
2018-08-13T06:10:12.728Z,17.80
2018-08-13T06:12:42.032Z,17.90
2018-08-13T06:15:13.133Z,18.00
2018-08-13T06:17:41.919Z,18.10
2018-08-13T06:20:12.172Z,18.10
2018-08-13T06:22:42.698Z,18.20
2018-08-13T06:25:12.570Z,18.50
2018-08-13T06:27:41.384Z,19.00
2018-08-13T06:30:13.440Z,19.40
2018-08-13T06:32:42.840Z,19.70
2018-08-13T06:35:12.539Z,19.90
2018-08-13T06:37:42.354Z,20.10
2018-08-13T06:40:11.480Z,20.30
2018-08-13T06:42:40.590Z,20.60
2018-08-13T06:45:10.651Z,20.80
2018-08-13T06:47:40.505Z,21.10
2018-08-13T06:50:11.630Z,21.40
2018-08-13T06:52:41.266Z,21.60
2018-08-13T06:55:10.137Z,21.80
2018-08-13T06:57:40.589Z,21.90
2018-08-13T07:00:12.317Z,22.10
2018-08-13T07:02:41.541Z,22.30
2018-08-13T07:05:11.153Z,22.50
2018-08-13T07:07:41.009Z,22.70
2018-08-13T07:10:12.101Z,22.80
2018-08-13T07:12:42.629Z,23.10
2018-08-13T07:15:12.180Z,23.30
2018-08-13T07:17:41.947Z,23.40
2018-08-13T07:20:13.728Z,23.30
2018-08-13T07:22:46.047Z,23.10
2018-08-13T07:25:15.166Z,22.90
2018-08-13T07:27:43.926Z,22.60
2018-08-13T07:30:14.780Z,22.50
2018-08-13T07:32:44.130Z,22.30
2018-08-13T07:35:12.975Z,22.20
2018-08-13T07:37:41.778Z,22.10
2018-08-13T07:40:18.866Z,21.90
2018-08-13T07:42:47.507Z,21.60
2018-08-13T07:45:16.225Z,21.40
2018-08-13T07:47:44.930Z,21.20
2018-08-13T07:50:15.115Z,21.10
2018-08-13T07:52:44.883Z,20.90
2018-08-13T07:55:14.246Z,20.70
2018-08-13T07:57:43.425Z,20.50
2018-08-13T08:00:15.088Z,20.40
2018-08-13T08:02:43.795Z,20.30
2018-08-13T08:05:12.599Z,20.20
2018-08-13T08:07:41.848Z,20.20
2018-08-13T08:10:15.679Z,20.20
2018-08-13T08:12:44.362Z,20.20
2018-08-13T08:15:16.467Z,20.30
2018-08-13T08:17:45.351Z,20.40
2018-08-13T08:20:14.274Z,20.50
2018-08-13T08:22:43.047Z,20.60
2018-08-13T08:25:24.654Z,20.70
2018-08-13T08:27:53.316Z,20.70
2018-08-13T08:30:22.474Z,20.70
2018-08-13T08:32:51.409Z,20.70
2018-08-13T08:35:20.450Z,20.70
2018-08-13T08:37:49.273Z,20.80
2018-08-13T08:40:20.342Z,20.80
2018-08-13T08:43:00.059Z,20.70
2018-08-13T08:45:28.890Z,20.60
2018-08-13T08:47:57.972Z,20.60
2018-08-13T08:50:27.264Z,20.60
2018-08-13T08:52:59.517Z,20.60
2018-08-13T08:55:28.523Z,20.60
2018-08-13T08:57:57.298Z,20.60
2018-08-13T09:00:26.201Z,20.60
2018-08-13T09:02:55.018Z,20.60
2018-08-13T09:05:24.349Z,20.60
2018-08-13T09:07:53.154Z,20.50
2018-08-13T09:10:22.580Z,20.40
2018-08-13T09:12:51.334Z,20.30
2018-08-13T09:15:20.133Z,20.30
2018-08-13T09:18:00.214Z,20.30
2018-08-13T09:20:39.899Z,20.20
2018-08-13T09:23:19.770Z,20.30
2018-08-13T09:25:59.518Z,20.20
2018-08-13T09:28:41.033Z,20.30
2018-08-13T09:31:16.415Z,20.30
2018-08-13T09:33:58.202Z,20.30
2018-08-13T09:36:27.393Z,20.20
2018-08-13T09:38:56.648Z,20.30
2018-08-13T09:41:25.506Z,20.30
2018-08-13T09:43:54.839Z,20.30
2018-08-13T09:46:23.658Z,20.40
2018-08-13T09:48:52.390Z,20.50
2018-08-13T09:51:21.387Z,20.60
2018-08-13T09:53:51.907Z,20.60
2018-08-13T09:56:21.289Z,20.70
2018-08-13T09:58:51.762Z,20.80
2018-08-13T10:01:21.139Z,20.90
2018-08-13T10:03:50.714Z,21.00
2018-08-13T10:06:19.782Z,21.10
2018-08-13T10:08:48.559Z,21.20
2018-08-13T10:11:17.436Z,21.30
2018-08-13T10:13:46.254Z,21.40
2018-08-13T10:16:15.039Z,21.50
2018-08-13T10:18:43.708Z,21.60
2018-08-13T10:21:12.429Z,21.60
2018-08-13T10:23:41.262Z,21.60
2018-08-13T10:26:10.176Z,21.60
2018-08-13T10:28:38.841Z,21.60
2018-08-13T10:31:07.641Z,21.70
2018-08-13T10:33:36.435Z,21.80
2018-08-13T10:36:06.852Z,21.80
2018-08-13T10:38:35.929Z,21.80
2018-08-13T10:41:04.648Z,21.70
2018-08-13T10:43:33.409Z,21.60
2018-08-13T10:46:04.611Z,21.60
2018-08-13T10:48:33.631Z,21.40
2018-08-13T10:51:02.355Z,21.30
2018-08-13T10:53:31.164Z,21.20
2018-08-13T10:55:59.893Z,21.40
2018-08-13T10:58:29.398Z,21.60
2018-08-13T11:00:58.356Z,21.90
2018-08-13T11:03:27.180Z,22.20
2018-08-13T11:05:56.108Z,22.40
2018-08-13T11:08:24.798Z,22.50
2018-08-13T11:10:53.799Z,22.70
2018-08-13T11:13:22.618Z,22.80
2018-08-13T11:15:51.345Z,23.10
2018-08-13T11:18:20.041Z,23.20
2018-08-13T11:20:48.773Z,23.40
2018-08-13T11:23:17.454Z,23.80
2018-08-13T11:25:46.142Z,24.20
2018-08-13T11:28:14.971Z,24.50
2018-08-13T11:30:43.738Z,24.50
2018-08-13T11:33:12.498Z,24.50
2018-08-13T11:35:41.247Z,24.50
2018-08-13T11:38:10.019Z,24.60
2018-08-13T11:40:38.854Z,24.90
2018-08-13T11:43:07.602Z,25.20
2018-08-13T11:45:36.773Z,25.50
2018-08-13T11:48:05.869Z,25.70
2018-08-13T11:50:34.684Z,25.90
2018-08-13T11:53:03.498Z,26.00
2018-08-13T11:55:32.419Z,26.00
2018-08-13T11:58:01.241Z,26.00
2018-08-13T12:00:30.141Z,25.80
2018-08-13T12:02:58.990Z,25.40
2018-08-13T12:05:27.704Z,25.20
2018-08-13T12:07:56.466Z,25.00
2018-08-13T12:10:25.269Z,25.00
2018-08-13T12:12:54.118Z,25.40
2018-08-13T12:15:22.855Z,25.80
2018-08-13T12:17:51.594Z,26.50
2018-08-13T12:20:26.741Z,27.00
2018-08-13T12:22:56.230Z,27.60
2018-08-13T12:25:27.439Z,27.60
2018-08-13T12:27:56.601Z,27.40
2018-08-13T12:30:25.870Z,27.20
2018-08-13T12:32:55.269Z,26.90
2018-08-13T12:35:24.136Z,26.60
2018-08-13T12:37:52.880Z,26.50
2018-08-13T12:40:21.751Z,26.20
2018-08-13T12:42:50.542Z,26.00
2018-08-13T12:45:19.730Z,25.90
2018-08-13T12:47:48.444Z,25.80
2018-08-13T12:50:19.134Z,25.50
2018-08-13T12:52:49.396Z,25.00
2018-08-13T12:55:29.154Z,24.60
2018-08-13T12:57:57.935Z,24.10
2018-08-13T13:00:26.765Z,23.60
2018-08-13T13:02:55.525Z,23.40
2018-08-13T13:05:24.227Z,23.10
2018-08-13T13:07:53.063Z,22.80
2018-08-13T13:10:21.878Z,22.60
2018-08-13T13:12:50.624Z,22.30
2018-08-13T13:15:20.503Z,22.10
2018-08-13T13:17:49.287Z,22.00
2018-08-13T13:20:20.857Z,21.90
2018-08-13T13:22:50.438Z,21.70
2018-08-13T13:25:21.846Z,21.60
2018-08-13T13:27:50.646Z,21.50
2018-08-13T13:30:19.433Z,21.40
2018-08-13T13:32:48.109Z,21.30
2018-08-13T13:35:17.993Z,21.20
2018-08-13T13:37:46.884Z,21.20
2018-08-13T13:40:17.091Z,21.30
2018-08-13T13:42:45.887Z,21.20
2018-08-13T13:45:15.732Z,21.40
2018-08-13T13:47:44.999Z,21.50
2018-08-13T13:50:18.398Z,21.90
2018-08-13T13:52:47.197Z,22.90
2018-08-13T13:55:16.505Z,23.90
2018-08-13T13:57:45.282Z,25.40
2018-08-13T14:00:18.308Z,28.30
2018-08-13T14:02:48.756Z,30.60
2018-08-13T14:05:17.875Z,31.80
2018-08-13T14:07:46.918Z,32.00
2018-08-13T14:10:20.627Z,31.10
2018-08-13T14:12:49.489Z,29.30
2018-08-13T14:15:19.616Z,27.90
2018-08-13T14:17:48.684Z,27.50
2018-08-13T14:20:17.973Z,27.90
2018-08-13T14:22:46.747Z,28.80
2018-08-13T14:25:15.917Z,29.10
2018-08-13T14:27:44.696Z,30.50
2018-08-13T14:30:22.106Z,31.70
2018-08-13T14:32:51.203Z,33.50
2018-08-13T14:35:21.044Z,34.60
2018-08-13T14:37:50.258Z,33.40
2018-08-13T14:40:19.169Z,34.20
2018-08-13T14:42:47.949Z,35.00
2018-08-13T14:45:17.859Z,35.40
2018-08-13T14:47:48.055Z,35.90
2018-08-13T14:50:16.835Z,36.70
2018-08-13T14:52:47.443Z,36.50
2018-08-13T14:55:17.788Z,34.90
2018-08-13T14:57:46.575Z,33.10
2018-08-13T15:00:26.329Z,32.90
2018-08-13T15:02:55.737Z,34.70
2018-08-13T15:05:24.689Z,33.30
2018-08-13T15:07:53.596Z,31.50
2018-08-13T15:10:23.763Z,31.70
2018-08-13T15:12:52.918Z,30.80
2018-08-13T15:15:21.726Z,31.40
2018-08-13T15:17:50.546Z,32.40
2018-08-13T15:20:28.273Z,31.50
2018-08-13T15:22:57.118Z,31.40
2018-08-13T15:25:27.335Z,32.30
2018-08-13T15:27:56.161Z,32.90
2018-08-13T15:30:25.513Z,33.50
2018-08-13T15:32:54.692Z,33.80
2018-08-13T15:35:23.478Z,33.50
2018-08-13T15:37:52.268Z,33.80
2018-08-13T15:40:21.167Z,34.00
2018-08-13T15:42:50.125Z,32.50
2018-08-13T15:45:23.275Z,30.10
2018-08-13T15:47:52.318Z,30.30
2018-08-13T15:50:22.116Z,33.20
2018-08-13T15:52:51.195Z,36.10
2018-08-13T15:55:20.020Z,37.30
2018-08-13T15:57:52.428Z,38.40
2018-08-13T16:00:23.455Z,37.70
2018-08-13T16:02:52.406Z,36.40
2018-08-13T16:05:21.441Z,35.20
2018-08-13T16:07:50.596Z,34.60
2018-08-13T16:10:19.570Z,33.50
2018-08-13T16:12:48.419Z,33.10
2018-08-13T16:15:17.257Z,32.60
2018-08-13T16:18:03.169Z,30.40
2018-08-13T16:20:31.880Z,28.80
2018-08-13T16:23:00.668Z,29.20
2018-08-13T16:25:29.427Z,29.50
2018-08-13T16:27:58.254Z,29.90
2018-08-13T16:30:29.483Z,29.70
2018-08-13T16:32:58.299Z,29.50
2018-08-13T16:35:27.033Z,28.10
2018-08-13T16:37:56.126Z,26.80
2018-08-13T16:40:24.947Z,26.00
2018-08-13T16:42:53.791Z,25.30
2018-08-13T16:45:23.002Z,25.20
2018-08-13T16:47:52.177Z,25.20
2018-08-13T16:50:28.013Z,25.10
2018-08-13T16:52:57.194Z,25.40
2018-08-13T16:55:26.858Z,27.00
2018-08-13T16:58:02.363Z,27.30
2018-08-13T17:00:32.015Z,26.50
2018-08-13T17:03:01.180Z,25.80
2018-08-13T17:05:31.634Z,25.30
2018-08-13T17:08:00.471Z,25.00
2018-08-13T17:10:29.829Z,24.80
2018-08-13T17:12:59.351Z,24.70
2018-08-13T17:15:29.622Z,24.70
2018-08-13T17:18:00.292Z,24.90
2018-08-13T17:20:34.902Z,25.00
2018-08-13T17:23:03.663Z,24.90
2018-08-13T17:25:32.440Z,24.50
2018-08-13T17:28:01.281Z,24.20
2018-08-13T17:30:30.019Z,23.90
2018-08-13T17:33:00.162Z,23.80
2018-08-13T17:35:31.728Z,23.60
2018-08-13T17:38:01.305Z,23.60
2018-08-13T17:40:30.722Z,23.70
2018-08-13T17:42:59.759Z,23.70
2018-08-13T17:45:28.374Z,23.80
2018-08-13T17:47:57.151Z,23.80
2018-08-13T17:50:26.259Z,23.80
2018-08-13T17:52:55.034Z,23.70
2018-08-13T17:55:23.853Z,23.60
2018-08-13T17:57:52.650Z,23.60
2018-08-13T18:00:25.526Z,23.50
2018-08-13T18:02:54.355Z,23.50
2018-08-13T18:05:24.879Z,23.80
2018-08-13T18:07:54.738Z,24.00
2018-08-13T18:10:28.184Z,24.20
2018-08-13T18:12:58.126Z,24.20
2018-08-13T18:15:27.001Z,24.20
2018-08-13T18:17:55.942Z,24.20
2018-08-13T18:20:24.779Z,24.20
2018-08-13T18:22:54.142Z,24.10
2018-08-13T18:25:23.050Z,24.00
2018-08-13T18:27:52.379Z,23.80
2018-08-13T18:30:23.686Z,23.70
2018-08-13T18:32:53.080Z,23.60
2018-08-13T18:35:21.962Z,23.50
2018-08-13T18:37:50.854Z,23.40
2018-08-13T18:40:22.684Z,23.40
2018-08-13T18:42:51.568Z,23.30
2018-08-13T18:45:20.457Z,23.20
2018-08-13T18:47:49.891Z,23.10
2018-08-13T18:50:19.849Z,23.00
2018-08-13T18:52:48.711Z,22.90
2018-08-13T18:55:20.870Z,22.80
2018-08-13T18:57:50.169Z,22.80
2018-08-13T19:00:20.434Z,22.70
2018-08-13T19:02:50.570Z,22.60
2018-08-13T19:05:20.764Z,22.60
2018-08-13T19:07:50.542Z,22.50
2018-08-13T19:10:20.155Z,22.40
2018-08-13T19:12:49.179Z,22.30
2018-08-13T19:15:20.348Z,22.20
2018-08-13T19:17:49.902Z,22.10
2018-08-13T19:20:19.395Z,22.10
2018-08-13T19:22:48.900Z,22.00
2018-08-13T19:25:22.730Z,22.00
2018-08-13T19:27:51.745Z,22.00
2018-08-13T19:30:21.494Z,21.90
2018-08-13T19:32:50.897Z,21.90
2018-08-13T19:35:44.057Z,21.80
2018-08-13T19:38:13.196Z,21.80
2018-08-13T19:40:42.025Z,21.80
2018-08-13T19:43:10.793Z,21.70
2018-08-13T19:45:39.538Z,21.70
2018-08-13T19:48:08.214Z,21.60
2018-08-13T19:50:37.422Z,21.50
2018-08-13T19:53:06.270Z,21.40
2018-08-13T19:55:36.095Z,21.30
2018-08-13T19:58:04.930Z,21.20
2018-08-13T20:00:33.752Z,21.10
2018-08-13T20:03:02.680Z,21.00
2018-08-13T20:05:32.355Z,21.00
2018-08-13T20:08:01.078Z,21.00
2018-08-13T20:10:30.186Z,20.90
2018-08-13T20:12:59.078Z,20.80
2018-08-13T20:15:28.102Z,20.70
2018-08-13T20:17:57.504Z,20.60
2018-08-13T20:20:26.415Z,20.50
2018-08-13T20:22:55.566Z,20.50
2018-08-13T20:25:24.290Z,20.40
2018-08-13T20:27:53.110Z,20.40
2018-08-13T20:30:23.281Z,20.40
2018-08-13T20:32:53.093Z,20.30
2018-08-13T20:35:22.071Z,20.20
2018-08-13T20:37:51.237Z,20.20
2018-08-13T20:40:21.339Z,20.10
2018-08-13T20:42:50.582Z,20.10
2018-08-13T20:45:20.959Z,20.10
2018-08-13T20:47:49.890Z,20.00
2018-08-13T20:50:20.442Z,20.00
2018-08-13T20:52:50.218Z,20.00
2018-08-13T20:55:20.426Z,19.90
2018-08-13T20:57:50.058Z,19.80
2018-08-13T21:00:20.530Z,19.80
2018-08-13T21:02:49.306Z,19.70
2018-08-13T21:05:18.590Z,19.60
2018-08-13T21:07:48.764Z,19.60
2018-08-13T21:10:20.879Z,19.50
2018-08-13T21:12:49.887Z,19.50
2018-08-13T21:15:18.659Z,19.60
2018-08-13T21:17:47.885Z,19.60
2018-08-13T21:20:25.065Z,19.50
2018-08-13T21:22:53.886Z,19.50
2018-08-13T21:25:23.701Z,19.50
2018-08-13T21:27:53.281Z,19.40
2018-08-13T21:30:22.100Z,19.40
2018-08-13T21:32:50.832Z,19.30
2018-08-13T21:35:21.882Z,19.20
2018-08-13T21:37:50.714Z,19.20
2018-08-13T21:40:19.421Z,19.10
2018-08-13T21:42:48.971Z,19.00
2018-08-13T21:45:17.716Z,18.90
2018-08-13T21:47:51.342Z,18.90
2018-08-13T21:50:22.393Z,18.90
2018-08-13T21:52:52.270Z,18.90
2018-08-13T21:55:21.155Z,18.80
2018-08-13T21:57:50.051Z,18.80
2018-08-13T22:00:26.105Z,18.80
2018-08-13T22:02:56.081Z,18.80
2018-08-13T22:05:25.121Z,18.80
2018-08-13T22:07:53.917Z,18.80
2018-08-13T22:10:22.769Z,18.90
2018-08-13T22:12:51.607Z,18.80
2018-08-13T22:15:30.056Z,18.80
2018-08-13T22:18:01.469Z,18.80
2018-08-13T22:20:32.491Z,18.80
2018-08-13T22:23:02.294Z,18.80
2018-08-13T22:25:36.330Z,18.80
2018-08-13T22:28:05.958Z,18.80
2018-08-13T22:30:35.413Z,18.70
2018-08-13T22:33:05.329Z,18.70
2018-08-13T22:35:34.126Z,18.70
2018-08-13T22:38:02.802Z,18.70
2018-08-13T22:40:31.497Z,18.60
2018-08-13T22:43:00.554Z,18.60
2018-08-13T22:45:29.303Z,18.60
2018-08-13T22:47:58.066Z,18.50
2018-08-13T22:50:26.838Z,18.50
2018-08-13T22:52:55.580Z,18.50
2018-08-13T22:55:24.422Z,18.50
2018-08-13T22:57:53.174Z,18.50
2018-08-13T23:00:22.267Z,18.50
2018-08-13T23:02:51.478Z,18.50
2018-08-13T23:05:23.551Z,18.50
2018-08-13T23:07:52.325Z,18.50
2018-08-13T23:10:22.378Z,18.50
2018-08-13T23:12:54.602Z,18.50
2018-08-13T23:15:23.767Z,18.50
2018-08-13T23:17:54.004Z,18.50
2018-08-13T23:20:25.344Z,18.50
2018-08-13T23:22:59.205Z,18.50
2018-08-13T23:25:28.754Z,18.40
2018-08-13T23:27:58.595Z,18.40
2018-08-13T23:30:27.769Z,18.30
2018-08-13T23:32:57.123Z,18.30
2018-08-13T23:35:26.502Z,18.30
2018-08-13T23:37:55.473Z,18.20
2018-08-13T23:40:25.038Z,18.20
2018-08-13T23:42:53.792Z,18.20
2018-08-13T23:45:26.246Z,18.20
2018-08-13T23:47:55.228Z,18.20
2018-08-13T23:50:25.282Z,18.20
2018-08-13T23:52:55.699Z,18.20
2018-08-13T23:55:31.658Z,18.20
2018-08-13T23:58:00.970Z,18.20
